首页
METAR-TAF:

METAR-TAF

机场 :

梅薩, 亞利桑那州, 美国

纬度: 33-19N, 经度: 111-39W, 海拔: 421米

当前天气观测

该预报发布于40分钟前的23:50 UTC
风速4节,风向西转西南
温度 19°C
湿度 60%
气压 1019 hPa
能見度: 16.1公里
阴天层高于17000英尺

METAR: KIWA 072350Z 25004KT 10SM OVC170 19/11 A3008

时间: 17:30 (00:30 UTC)

预报

该预报发布于50分钟前的23:40 UTC
预报有效从08日的 00点(UTC)到 08日的 24点(UTC)
风速4节,风向西北
能見度: 10公里
少量云层高于6000英尺
散云层高于8000英尺
多云层高于18000英尺
从 08日的 0030点(UTC)
风速4节,风向西北
能見度: 10公里
少量云层高于6000英尺
多云层高于8000英尺
阴天层高于18000英尺
附近有阵雨
从 08日的 0100点(UTC)
风速4节,风向西北
能見度: 10公里
少量云层高于6000英尺
多云层高于8000英尺
阴天层高于18000英尺
小阵雨
从 08日的 0330点(UTC)
风速4节,风向北转西北
能見度: 10公里
少量云层高于5000英尺
多云层高于7000英尺
阴天层高于12000英尺
附近有阵雨
从 08日的 0800点(UTC)
风速4节,风向东转东南
能見度: 10公里
阴天层高于5000英尺
小阵雨
从 08日的 1200点(UTC)
风速3节,风向东南
能見度: 10公里
阴天层高于5000英尺
附近有阵雨

TAF: KIWA 072340Z 0800/0824 31004KT P6SM FEW060 SCT080 BKN180 FM080030 31004KT P6SM VCSH FEW060 BKN080 OVC180 FM080100 32004KT P6SM -SHRA FEW060 BKN080 OVC180 FM080330 34004KT P6SM VCSH FEW050 BKN070 OVC120 FM080800 11004KT P6SM -SHRA OVC050 FM081200 13003KT P6SM VCSH OVC050

超过4000个机场的气象观测和天气预报(METAR&TAF报告)。

可查询的气象台以黄色和红色小点在地图上表示。

将鼠标移到小点上方,可查看气象台名称。

然后点击查看天气观测和预报。

如需切换地图:点击带黑十字的绿色按钮放大地图;点击带横线的绿色按钮缩小地图;或者点击绿色箭头查看邻近地区的地图。


METAR-TAF: